createdAt,value
2023-01-13T00:02:07.520Z,76664.16
2023-01-13T00:04:34.025Z,76676.06
2023-01-13T00:07:00.568Z,76664.16
2023-01-13T00:09:27.042Z,76678.06
2023-01-13T00:11:53.464Z,76656.22
2023-01-13T00:14:19.914Z,76664.16
2023-01-13T00:16:46.392Z,76658.19
2023-01-13T00:19:12.911Z,76658.19
2023-01-13T00:21:39.392Z,76644.28
2023-01-13T00:24:06.180Z,76650.25
2023-01-13T00:26:35.899Z,76654.22
2023-01-13T00:29:02.744Z,76638.31
2023-01-13T00:31:29.757Z,76640.31
2023-01-13T00:33:57.973Z,76648.25
2023-01-13T00:36:24.411Z,76646.28
2023-01-13T00:38:50.917Z,76636.34
2023-01-13T00:41:20.353Z,76638.31
2023-01-13T00:43:47.932Z,76638.31
2023-01-13T00:46:17.717Z,76630.38
2023-01-13T00:48:45.161Z,76632.34
2023-01-13T00:51:13.215Z,76626.41
2023-01-13T00:53:41.630Z,76618.44
2023-01-13T00:56:14.295Z,76624.41
2023-01-13T00:58:41.950Z,76622.44
2023-01-13T01:01:18.739Z,76628.38
2023-01-13T01:03:47.965Z,76634.34
2023-01-13T01:06:21.255Z,76630.38
2023-01-13T01:08:47.776Z,76628.38
2023-01-13T01:11:19.687Z,76622.44
2023-01-13T01:13:46.744Z,76626.41
2023-01-13T01:16:16.343Z,76612.50
2023-01-13T01:18:46.328Z,76618.44
2023-01-13T01:21:13.615Z,76620.44
2023-01-13T01:23:41.003Z,76614.47
2023-01-13T01:26:13.399Z,76614.47
2023-01-13T01:28:40.202Z,76616.47
2023-01-13T01:31:17.192Z,76614.47
2023-01-13T01:33:44.335Z,76604.53
2023-01-13T01:36:12.319Z,76618.44
2023-01-13T01:38:38.967Z,76616.47
2023-01-13T01:41:05.861Z,76592.63
2023-01-13T01:44:08.007Z,76602.56
2023-01-13T01:46:40.300Z,76590.63
2023-01-13T01:49:18.286Z,76588.63
2023-01-13T01:52:01.355Z,76588.63
2023-01-13T01:54:40.241Z,76584.66
2023-01-13T01:57:09.338Z,76576.72
2023-01-13T01:59:36.353Z,76580.69
2023-01-13T02:02:03.247Z,76578.72
2023-01-13T02:04:36.000Z,76576.72
2023-01-13T02:07:03.813Z,76570.75
2023-01-13T02:09:30.907Z,76570.75
2023-01-13T02:12:15.723Z,76572.75
2023-01-13T02:14:42.891Z,76556.84
2023-01-13T02:17:32.587Z,76562.81
2023-01-13T02:20:14.300Z,76554.84
2023-01-13T02:22:57.429Z,76566.78
2023-01-13T02:25:36.062Z,76564.78
2023-01-13T02:28:24.321Z,76556.84
2023-01-13T02:31:18.028Z,76550.88
2023-01-13T02:33:47.414Z,76556.84
2023-01-13T02:36:29.850Z,76556.84
2023-01-13T02:39:23.443Z,76564.78
2023-01-13T02:42:21.285Z,76572.75
2023-01-13T02:44:53.677Z,76572.75
2023-01-13T02:47:26.823Z,76578.72
2023-01-13T02:49:58.975Z,76580.69
2023-01-13T02:52:40.119Z,76564.78
2023-01-13T02:55:12.273Z,76558.84
2023-01-13T02:57:41.137Z,76562.81
2023-01-13T03:00:12.310Z,76552.88
2023-01-13T03:02:38.944Z,76542.94
2023-01-13T03:05:06.304Z,76548.91
2023-01-13T03:07:53.427Z,76544.94
2023-01-13T03:10:31.358Z,76538.97
2023-01-13T03:13:26.427Z,76538.97
2023-01-13T03:16:11.283Z,76535.00
2023-01-13T03:18:43.315Z,76535.00
2023-01-13T03:21:19.639Z,76544.94
2023-01-13T03:24:02.282Z,76536.97
2023-01-13T03:26:58.847Z,76542.94
2023-01-13T03:29:35.887Z,76515.13
2023-01-13T03:32:14.274Z,76491.28
2023-01-13T03:34:48.587Z,76533.00
2023-01-13T03:37:19.322Z,76536.97
2023-01-13T03:39:52.279Z,76542.94
2023-01-13T03:42:23.906Z,76538.97
2023-01-13T03:45:04.043Z,76533.00
2023-01-13T03:47:42.976Z,76533.00
2023-01-13T03:50:22.498Z,76535.00
2023-01-13T03:53:21.558Z,76540.94
2023-01-13T03:55:55.919Z,76542.94
2023-01-13T03:58:36.971Z,76544.94
2023-01-13T04:01:20.207Z,76527.03
2023-01-13T04:03:52.485Z,76525.06
2023-01-13T04:06:29.075Z,76554.84
2023-01-13T04:09:08.034Z,76540.94
2023-01-13T04:11:42.572Z,76546.91
2023-01-13T04:14:12.321Z,76554.84
2023-01-13T04:16:39.114Z,76554.84
2023-01-13T04:19:06.535Z,76544.94
2023-01-13T04:21:35.046Z,76535.00
2023-01-13T04:24:01.439Z,76558.84
2023-01-13T04:26:27.892Z,76552.88
2023-01-13T04:28:55.400Z,76550.88
2023-01-13T04:31:22.219Z,76554.84
2023-01-13T04:33:48.641Z,76540.94
2023-01-13T04:36:15.717Z,76542.94
2023-01-13T04:38:42.147Z,76538.97
2023-01-13T04:41:08.511Z,76521.09
2023-01-13T04:43:34.901Z,76535.00
2023-01-13T04:46:01.408Z,76535.00
2023-01-13T04:48:27.820Z,76538.97
2023-01-13T04:50:54.264Z,76556.84
2023-01-13T04:53:20.715Z,76566.78
2023-01-13T04:55:47.968Z,76562.81
2023-01-13T04:58:14.383Z,76558.84
2023-01-13T05:00:40.994Z,76554.84
2023-01-13T05:03:07.489Z,76546.91
2023-01-13T05:05:33.899Z,76525.06
2023-01-13T05:08:00.497Z,76542.94
2023-01-13T05:10:27.737Z,76521.09
2023-01-13T05:13:20.326Z,76531.00
2023-01-13T05:16:06.701Z,76523.06
2023-01-13T05:18:33.533Z,76517.09
2023-01-13T05:20:59.909Z,76519.09
2023-01-13T05:23:44.860Z,76515.13
2023-01-13T05:26:11.723Z,76505.19
2023-01-13T05:28:38.202Z,76509.16
2023-01-13T05:31:04.677Z,76507.16
2023-01-13T05:33:31.270Z,76507.16
2023-01-13T05:36:02.465Z,76495.25
2023-01-13T05:38:28.803Z,76503.19
2023-01-13T05:41:13.683Z,76503.19
2023-01-13T05:43:40.056Z,76493.25
2023-01-13T05:46:09.212Z,76503.19
2023-01-13T05:48:41.225Z,76501.22
2023-01-13T05:51:09.741Z,76503.19
2023-01-13T05:53:36.890Z,76505.19
2023-01-13T05:56:08.196Z,76503.19
2023-01-13T05:58:34.762Z,76521.09
2023-01-13T06:01:03.491Z,76533.00
2023-01-13T06:03:30.041Z,76544.94
2023-01-13T06:05:59.305Z,76548.91
2023-01-13T06:08:26.215Z,76560.81
2023-01-13T06:10:52.902Z,76572.75
2023-01-13T06:13:19.463Z,76568.78
2023-01-13T06:15:45.896Z,76572.75
2023-01-13T06:18:12.370Z,76550.88
2023-01-13T06:20:38.796Z,76566.78
2023-01-13T06:23:09.557Z,76562.81
2023-01-13T06:26:14.294Z,76572.75
2023-01-13T06:28:40.709Z,76570.75
2023-01-13T06:31:08.847Z,76566.78
2023-01-13T06:33:48.737Z,76566.78
2023-01-13T06:36:22.208Z,76570.75
2023-01-13T06:38:52.230Z,76550.88
2023-01-13T06:41:39.886Z,76554.84
2023-01-13T06:44:06.682Z,76558.84
2023-01-13T06:46:34.588Z,76556.84
2023-01-13T06:49:01.107Z,76554.84
2023-01-13T06:51:27.489Z,76542.94
2023-01-13T06:53:53.887Z,76552.88
2023-01-13T06:56:20.309Z,76556.84
2023-01-13T06:58:46.706Z,76546.91
2023-01-13T07:01:13.148Z,76558.84
2023-01-13T07:03:40.736Z,76562.81
2023-01-13T07:06:10.295Z,76562.81
2023-01-13T07:08:36.695Z,76554.84
2023-01-13T07:11:03.456Z,76556.84
2023-01-13T07:13:48.567Z,76560.81
2023-01-13T07:16:15.154Z,76566.78
2023-01-13T07:18:41.668Z,76580.69
2023-01-13T07:21:10.546Z,76584.66
2023-01-13T07:23:39.646Z,76592.63
2023-01-13T07:26:08.321Z,76594.59
2023-01-13T07:28:35.374Z,76618.44
2023-01-13T07:31:01.999Z,76626.41
2023-01-13T07:33:28.469Z,76632.34
2023-01-13T07:36:00.546Z,76628.38
2023-01-13T07:38:27.502Z,76636.34
2023-01-13T07:40:53.989Z,76648.25
2023-01-13T07:43:32.605Z,76642.28
2023-01-13T07:46:01.674Z,76646.28
2023-01-13T07:48:29.125Z,76632.34
2023-01-13T07:50:55.982Z,76634.34
2023-01-13T07:53:25.084Z,76638.31
2023-01-13T07:55:56.270Z,76638.31
2023-01-13T07:58:23.475Z,76642.28
2023-01-13T08:00:49.947Z,76640.31
2023-01-13T08:03:16.434Z,76646.28
2023-01-13T08:05:42.999Z,76642.28
2023-01-13T08:08:09.435Z,76634.34
2023-01-13T08:10:35.899Z,76656.22
2023-01-13T08:13:18.236Z,76680.06
2023-01-13T08:15:46.210Z,76682.03
2023-01-13T08:18:13.302Z,76697.94
2023-01-13T08:20:39.895Z,76697.94
2023-01-13T08:23:07.345Z,76697.94
2023-01-13T08:25:34.085Z,76695.94
2023-01-13T08:28:00.506Z,76695.94
2023-01-13T08:30:27.818Z,76693.97
2023-01-13T08:32:54.595Z,76693.97
2023-01-13T08:35:21.818Z,76691.97
2023-01-13T08:37:48.709Z,76676.06
2023-01-13T08:40:16.261Z,76693.97
2023-01-13T08:42:42.783Z,76693.97
2023-01-13T08:45:10.433Z,76711.84
2023-01-13T08:47:37.148Z,76699.94
2023-01-13T08:50:04.021Z,76699.94
2023-01-13T08:52:30.971Z,76695.94
2023-01-13T08:54:57.481Z,76695.94
2023-01-13T08:57:24.007Z,76693.97
2023-01-13T08:59:50.524Z,76693.97
2023-01-13T09:02:21.160Z,76703.91
2023-01-13T09:04:48.707Z,76693.97
2023-01-13T09:07:15.905Z,76699.94
2023-01-13T09:09:42.629Z,76686.00
2023-01-13T09:12:30.669Z,76693.97
2023-01-13T09:14:57.058Z,76701.91
2023-01-13T09:17:24.108Z,76686.00
2023-01-13T09:19:50.582Z,76699.94
2023-01-13T09:22:19.280Z,76674.09
2023-01-13T09:24:46.212Z,76650.25
2023-01-13T09:27:14.936Z,76662.16
2023-01-13T09:29:41.512Z,76691.97
2023-01-13T09:32:11.679Z,76719.81
2023-01-13T09:34:56.653Z,76719.81
2023-01-13T09:37:23.118Z,76703.91
2023-01-13T09:39:49.483Z,76695.94
2023-01-13T09:42:40.133Z,76684.03
2023-01-13T09:45:23.794Z,76699.94
2023-01-13T09:47:58.656Z,76680.06
2023-01-13T09:50:29.683Z,76684.03
2023-01-13T09:52:57.245Z,76686.00
2023-01-13T09:55:30.247Z,76682.03
2023-01-13T09:57:56.776Z,76678.06
2023-01-13T10:00:30.082Z,76686.00
2023-01-13T10:03:14.143Z,76672.09
2023-01-13T10:05:49.312Z,76697.94
2023-01-13T10:08:29.664Z,76709.88
2023-01-13T10:10:59.720Z,76701.91
2023-01-13T10:13:30.159Z,76705.88
2023-01-13T10:16:18.952Z,76733.72
2023-01-13T10:19:03.458Z,76711.84
2023-01-13T10:21:48.189Z,76709.88
2023-01-13T10:24:23.620Z,76703.91
2023-01-13T10:27:25.522Z,76713.84
2023-01-13T10:29:51.909Z,76727.75
2023-01-13T10:32:18.324Z,76715.81
2023-01-13T10:34:48.575Z,76731.72
2023-01-13T10:37:23.290Z,76729.75
2023-01-13T10:39:54.511Z,76711.84
2023-01-13T10:42:22.986Z,76711.84
2023-01-13T10:45:00.767Z,76691.97
2023-01-13T10:47:30.292Z,76697.94
2023-01-13T10:50:09.763Z,76676.06
2023-01-13T10:52:42.727Z,76674.09
2023-01-13T10:55:33.360Z,76672.09
2023-01-13T10:58:13.268Z,76678.06
2023-01-13T11:00:40.143Z,76674.09
2023-01-13T11:03:14.020Z,76664.16
2023-01-13T11:05:47.503Z,76658.19
2023-01-13T11:08:19.618Z,76656.22
2023-01-13T11:10:49.143Z,76642.28
2023-01-13T11:13:30.400Z,76666.16
2023-01-13T11:16:17.942Z,76658.19
2023-01-13T11:19:11.891Z,76693.97
2023-01-13T11:21:56.564Z,76703.91
2023-01-13T11:24:37.591Z,76711.84
2023-01-13T11:27:17.930Z,76709.88
2023-01-13T11:29:59.105Z,76709.88
2023-01-13T11:32:27.858Z,76721.78
2023-01-13T11:34:59.859Z,76719.81
2023-01-13T11:37:36.279Z,76715.81
2023-01-13T11:40:18.569Z,76691.97
2023-01-13T11:42:59.910Z,76680.06
2023-01-13T11:45:41.184Z,76674.09
2023-01-13T11:48:19.670Z,76670.13
2023-01-13T11:51:14.137Z,76668.13
2023-01-13T11:54:04.689Z,76654.22
2023-01-13T11:57:05.395Z,76656.22
2023-01-13T11:59:50.531Z,76662.16
2023-01-13T12:02:37.506Z,76650.25
2023-01-13T12:05:19.208Z,76656.22
2023-01-13T12:08:08.591Z,76658.19
2023-01-13T12:10:53.094Z,76644.28
2023-01-13T12:13:36.152Z,76658.19
2023-01-13T12:16:27.539Z,76650.25
2023-01-13T12:19:16.722Z,76644.28
2023-01-13T12:22:02.029Z,76644.28
2023-01-13T12:24:38.141Z,76642.28
2023-01-13T12:27:11.106Z,76640.31
2023-01-13T12:29:38.776Z,76638.31
2023-01-13T12:32:11.434Z,76638.31
2023-01-13T12:35:03.688Z,76644.28
2023-01-13T12:37:48.572Z,76658.19
2023-01-13T12:40:47.069Z,76654.22
2023-01-13T12:43:40.912Z,76674.09
2023-01-13T12:46:19.328Z,76656.22
2023-01-13T12:48:54.837Z,76660.19
2023-01-13T12:51:56.705Z,76668.13
2023-01-13T12:54:42.397Z,76662.16
2023-01-13T12:57:21.324Z,76668.13
2023-01-13T13:00:00.100Z,76676.06
2023-01-13T13:02:30.084Z,76674.09
2023-01-13T13:04:59.519Z,76662.16
2023-01-13T13:07:26.602Z,76646.28
2023-01-13T13:09:58.959Z,76660.19
2023-01-13T13:12:50.287Z,76646.28
2023-01-13T13:15:21.181Z,76658.19
2023-01-13T13:18:16.924Z,76656.22
2023-01-13T13:21:10.344Z,76666.16
2023-01-13T13:23:48.240Z,76668.13
2023-01-13T13:26:45.613Z,76670.13
2023-01-13T13:29:34.390Z,76662.16
2023-01-13T13:32:31.740Z,76688.00
2023-01-13T13:35:28.442Z,76691.97
2023-01-13T13:38:28.323Z,76686.00
2023-01-13T13:41:13.052Z,76676.06
2023-01-13T13:44:01.121Z,76691.97
2023-01-13T13:46:48.812Z,76695.94
2023-01-13T13:49:22.446Z,76693.97
2023-01-13T13:52:00.249Z,76662.16
2023-01-13T13:54:27.253Z,76690.00
2023-01-13T13:56:53.953Z,76699.94
2023-01-13T13:59:26.005Z,76693.97
2023-01-13T14:02:02.204Z,76715.81
2023-01-13T14:04:40.694Z,76711.84
2023-01-13T14:07:20.661Z,76717.81
2023-01-13T14:09:50.951Z,76705.88
2023-01-13T14:12:25.939Z,76727.75
2023-01-13T14:14:55.908Z,76757.56
2023-01-13T14:17:28.396Z,76763.53
2023-01-13T14:20:10.280Z,76759.53
2023-01-13T14:22:36.845Z,76773.47
2023-01-13T14:25:18.655Z,76799.28
2023-01-13T14:27:45.423Z,76795.31
2023-01-13T14:30:15.825Z,76803.25
2023-01-13T14:32:42.461Z,76777.44
2023-01-13T14:35:09.193Z,76761.53
2023-01-13T14:37:40.910Z,76769.47
2023-01-13T14:40:33.331Z,76769.47
2023-01-13T14:43:01.065Z,76743.66
2023-01-13T14:45:27.616Z,76745.63
2023-01-13T14:47:54.536Z,76765.50
2023-01-13T14:50:28.150Z,76763.53
2023-01-13T14:52:57.026Z,76761.53
2023-01-13T14:55:37.274Z,76757.56
2023-01-13T14:58:22.048Z,76767.50
2023-01-13T15:00:50.010Z,76773.47
2023-01-13T15:03:18.844Z,76769.47
2023-01-13T15:05:51.307Z,76811.22
2023-01-13T15:08:27.272Z,76825.13
2023-01-13T15:11:02.100Z,76848.97
2023-01-13T15:13:52.904Z,76850.97
2023-01-13T15:16:25.022Z,76878.78
2023-01-13T15:18:52.778Z,76884.75
2023-01-13T15:21:19.580Z,76896.66
2023-01-13T15:23:47.288Z,76896.66
2023-01-13T15:26:20.306Z,76902.63
2023-01-13T15:28:47.573Z,76906.59
2023-01-13T15:31:14.180Z,76924.50
2023-01-13T15:33:41.448Z,76936.41
2023-01-13T15:36:24.874Z,76926.47
2023-01-13T15:38:51.602Z,76934.44
2023-01-13T15:41:38.377Z,76938.41
2023-01-13T15:44:23.681Z,76952.31
2023-01-13T15:46:51.722Z,76944.38
2023-01-13T15:49:50.587Z,76970.19
2023-01-13T15:52:23.364Z,76974.19
2023-01-13T15:54:51.036Z,76988.09
2023-01-13T15:57:28.994Z,76988.09
2023-01-13T15:59:58.092Z,76982.13
2023-01-13T16:02:36.685Z,76968.22
2023-01-13T16:05:05.801Z,76978.16
2023-01-13T16:07:32.356Z,76996.03
2023-01-13T16:10:01.746Z,76996.03
2023-01-13T16:12:28.267Z,77011.94
2023-01-13T16:14:54.733Z,77002.00
2023-01-13T16:17:29.442Z,77000.00
2023-01-13T16:19:56.047Z,77009.94
2023-01-13T16:22:23.245Z,77007.97
2023-01-13T16:24:49.773Z,77002.00
2023-01-13T16:27:25.156Z,77005.97
2023-01-13T16:29:52.554Z,77009.94
2023-01-13T16:32:20.862Z,77011.94
2023-01-13T16:34:47.512Z,77007.97
2023-01-13T16:37:26.034Z,76996.03
2023-01-13T16:39:53.624Z,76990.06
2023-01-13T16:42:20.928Z,76986.09
2023-01-13T16:44:48.540Z,76996.03
2023-01-13T16:47:17.099Z,76984.13
2023-01-13T16:49:44.369Z,76992.06
2023-01-13T16:52:11.220Z,77000.00
2023-01-13T16:54:37.719Z,76992.06
2023-01-13T16:57:04.887Z,76998.03
2023-01-13T16:59:31.334Z,77002.00
2023-01-13T17:01:57.848Z,77004.00
2023-01-13T17:04:24.404Z,76998.03
2023-01-13T17:07:07.728Z,77011.94
2023-01-13T17:09:34.767Z,77023.88
2023-01-13T17:12:01.461Z,77021.88
2023-01-13T17:14:27.957Z,77021.88
2023-01-13T17:16:57.243Z,77025.84
2023-01-13T17:19:24.290Z,77045.72
2023-01-13T17:21:53.416Z,77047.72
2023-01-13T17:24:20.055Z,77059.63
2023-01-13T17:26:49.197Z,77061.63
2023-01-13T17:29:18.606Z,77031.81
2023-01-13T17:31:45.284Z,77089.44
2023-01-13T17:34:12.727Z,77091.44
2023-01-13T17:36:39.279Z,77077.53
2023-01-13T17:39:07.056Z,77079.50
2023-01-13T17:41:33.559Z,77085.47
2023-01-13T17:44:00.007Z,77091.44
2023-01-13T17:46:26.551Z,77091.44
2023-01-13T17:48:54.007Z,77069.56
2023-01-13T17:51:22.638Z,77043.75
2023-01-13T17:53:49.174Z,77055.66
2023-01-13T17:56:15.865Z,77085.47
2023-01-13T17:58:42.658Z,77093.44
2023-01-13T18:01:11.715Z,77085.47
2023-01-13T18:03:39.757Z,77083.50
2023-01-13T18:06:08.604Z,77091.44
2023-01-13T18:08:35.327Z,77065.59
2023-01-13T18:11:02.937Z,77097.41
2023-01-13T18:13:31.399Z,77093.44
2023-01-13T18:16:10.943Z,77089.44
2023-01-13T18:18:38.938Z,77085.47
2023-01-13T18:21:24.832Z,77095.41
2023-01-13T18:24:14.625Z,77101.38
2023-01-13T18:27:00.662Z,77089.44
2023-01-13T18:29:27.087Z,77079.50
2023-01-13T18:31:53.489Z,77095.41
2023-01-13T18:34:20.220Z,77091.44
2023-01-13T18:36:46.668Z,77101.38
2023-01-13T18:39:13.284Z,77099.38
2023-01-13T18:41:58.321Z,77091.44
2023-01-13T18:44:24.751Z,77071.56
2023-01-13T18:46:51.259Z,77089.44
2023-01-13T18:49:17.908Z,77101.38
2023-01-13T18:51:44.427Z,77097.41
2023-01-13T18:54:10.879Z,77115.28
2023-01-13T18:56:37.489Z,77123.25
2023-01-13T18:59:04.275Z,77133.19
2023-01-13T19:01:30.712Z,77137.16
2023-01-13T19:04:04.935Z,77139.13
2023-01-13T19:06:33.798Z,77141.13
2023-01-13T19:09:08.510Z,77131.19
2023-01-13T19:11:38.667Z,77137.16
2023-01-13T19:14:05.223Z,77131.19
2023-01-13T19:16:32.167Z,77123.25
2023-01-13T19:18:59.897Z,77131.19
2023-01-13T19:21:26.631Z,77123.25
2023-01-13T19:23:54.789Z,77127.22
2023-01-13T19:26:21.664Z,77131.19
2023-01-13T19:28:48.701Z,77127.22
2023-01-13T19:31:17.452Z,77121.25
2023-01-13T19:33:43.920Z,77137.16
2023-01-13T19:36:10.774Z,77145.09
2023-01-13T19:38:38.107Z,77137.16
2023-01-13T19:41:11.657Z,77137.16
2023-01-13T19:43:56.921Z,77135.16
2023-01-13T19:46:25.988Z,77143.13
2023-01-13T19:48:52.487Z,77166.97
2023-01-13T19:51:18.905Z,77178.88
2023-01-13T19:53:46.845Z,77172.94
2023-01-13T19:56:14.336Z,77186.84
2023-01-13T19:58:41.949Z,77186.84
2023-01-13T20:01:10.196Z,77184.84
2023-01-13T20:03:37.713Z,77194.78
2023-01-13T20:06:08.708Z,77186.84
2023-01-13T20:08:35.291Z,77194.78
2023-01-13T20:11:21.445Z,77188.81
2023-01-13T20:13:48.984Z,77196.78
2023-01-13T20:16:15.569Z,77210.69
2023-01-13T20:18:42.114Z,77198.75
2023-01-13T20:21:08.802Z,77212.69
2023-01-13T20:23:35.535Z,77200.75
2023-01-13T20:26:02.152Z,77198.75
2023-01-13T20:28:28.859Z,77200.75
2023-01-13T20:30:55.802Z,77202.75
2023-01-13T20:33:22.235Z,77218.63
2023-01-13T20:35:56.887Z,77228.56
2023-01-13T20:38:23.296Z,77230.56
2023-01-13T20:40:58.657Z,77228.56
2023-01-13T20:43:25.111Z,77248.44
2023-01-13T20:45:51.487Z,77248.44
2023-01-13T20:48:18.144Z,77264.34
2023-01-13T20:50:44.816Z,77262.38
2023-01-13T20:53:11.239Z,77268.31
2023-01-13T20:55:39.850Z,77280.25
2023-01-13T20:58:06.230Z,77282.25
2023-01-13T21:00:32.695Z,77282.25
2023-01-13T21:02:59.888Z,77278.25
2023-01-13T21:05:26.758Z,77266.34
2023-01-13T21:07:53.155Z,77272.31
2023-01-13T21:10:19.703Z,77278.25
2023-01-13T21:13:04.757Z,77264.34
2023-01-13T21:15:31.194Z,77280.25
2023-01-13T21:18:16.250Z,77278.25
2023-01-13T21:20:42.722Z,77298.13
2023-01-13T21:23:10.895Z,77306.09
2023-01-13T21:25:39.643Z,77314.03
2023-01-13T21:28:06.737Z,77306.09
2023-01-13T21:30:34.593Z,77320.00
2023-01-13T21:33:01.124Z,77331.94
2023-01-13T21:35:27.822Z,77337.91
2023-01-13T21:37:54.265Z,77335.91
2023-01-13T21:40:21.121Z,77337.91
2023-01-13T21:43:06.308Z,77343.84
2023-01-13T21:45:51.508Z,77351.81
2023-01-13T21:48:17.925Z,77353.78
2023-01-13T21:50:45.260Z,77355.78
2023-01-13T21:53:14.775Z,77345.84
2023-01-13T21:55:42.379Z,77333.91
2023-01-13T21:58:15.020Z,77329.94
2023-01-13T22:00:43.931Z,77318.03
2023-01-13T22:03:11.666Z,77318.03
2023-01-13T22:05:38.572Z,77316.03
2023-01-13T22:08:06.054Z,77325.97
2023-01-13T22:10:32.711Z,77339.88
2023-01-13T22:13:21.181Z,77365.72
2023-01-13T22:15:47.827Z,77367.72
2023-01-13T22:18:14.308Z,77359.75
2023-01-13T22:20:42.024Z,77373.66
2023-01-13T22:23:08.663Z,77369.69
2023-01-13T22:25:35.117Z,77375.66
2023-01-13T22:28:05.958Z,77381.63
2023-01-13T22:30:33.117Z,77369.69
2023-01-13T22:32:59.939Z,77363.72
2023-01-13T22:35:26.504Z,77349.81
2023-01-13T22:37:52.894Z,77357.78
2023-01-13T22:40:19.319Z,77361.75
2023-01-13T22:42:45.691Z,77367.72
2023-01-13T22:45:13.195Z,77377.66
2023-01-13T22:47:39.615Z,77385.59
2023-01-13T22:50:07.338Z,77383.59
2023-01-13T22:52:34.889Z,77387.59
2023-01-13T22:55:01.430Z,77383.59
2023-01-13T22:57:35.898Z,77389.56
2023-01-13T23:00:06.089Z,77377.66
2023-01-13T23:02:34.520Z,77373.66
2023-01-13T23:05:01.406Z,77377.66
2023-01-13T23:07:27.920Z,77379.63
2023-01-13T23:09:54.311Z,77377.66
2023-01-13T23:12:20.732Z,77361.75
2023-01-13T23:14:47.134Z,77371.69
2023-01-13T23:17:13.520Z,77367.72
2023-01-13T23:19:39.917Z,77381.63
2023-01-13T23:22:06.303Z,77381.63
2023-01-13T23:24:32.779Z,77377.66
2023-01-13T23:26:59.210Z,77379.63
2023-01-13T23:29:25.696Z,77383.59
2023-01-13T23:31:52.063Z,77381.63
2023-01-13T23:34:18.429Z,77387.59
2023-01-13T23:36:45.457Z,77381.63
2023-01-13T23:39:11.881Z,77373.66
2023-01-13T23:41:38.354Z,77369.69
2023-01-13T23:44:04.849Z,77353.78
2023-01-13T23:46:33.037Z,77359.75
2023-01-13T23:48:59.509Z,77355.78
2023-01-13T23:51:27.457Z,77355.78
2023-01-13T23:53:54.279Z,77381.63
2023-01-13T23:56:23.808Z,77393.56
2023-01-13T23:58:50.643Z,77383.59
